sensor_id;sensor_type;location;lat;lon;timestamp;P1;durP1;ratioP1;P2;durP2;ratioP2
9056;SDS011;4563;54.756;9.400;2022-09-09T00:01:10;16.73;;;10.77;;
9056;SDS011;4563;54.756;9.400;2022-09-09T00:03:51;20.27;;;10.90;;
9056;SDS011;4563;54.756;9.400;2022-09-09T00:06:24;19.40;;;10.40;;
9056;SDS011;4563;54.756;9.400;2022-09-09T00:08:59;15.10;;;10.10;;
9056;SDS011;4563;54.756;9.400;2022-09-09T00:11:32;16.17;;;10.43;;
9056;SDS011;4563;54.756;9.400;2022-09-09T00:14:10;15.47;;;11.37;;
9056;SDS011;4563;54.756;9.400;2022-09-09T00:16:43;17.00;;;11.13;;
9056;SDS011;4563;54.756;9.400;2022-09-09T00:19:15;15.67;;;10.90;;
9056;SDS011;4563;54.756;9.400;2022-09-09T00:21:49;17.00;;;11.00;;
9056;SDS011;4563;54.756;9.400;2022-09-09T00:24:24;17.90;;;12.43;;
9056;SDS011;4563;54.756;9.400;2022-09-09T00:26:56;18.37;;;11.77;;
9056;SDS011;4563;54.756;9.400;2022-09-09T00:29:31;17.17;;;11.43;;
9056;SDS011;4563;54.756;9.400;2022-09-09T00:32:05;21.73;;;12.20;;
9056;SDS011;4563;54.756;9.400;2022-09-09T00:34:46;18.57;;;11.43;;
9056;SDS011;4563;54.756;9.400;2022-09-09T00:37:14;19.03;;;11.80;;
9056;SDS011;4563;54.756;9.400;2022-09-09T00:39:42;17.23;;;11.77;;
9056;SDS011;4563;54.756;9.400;2022-09-09T00:42:13;14.13;;;11.07;;
9056;SDS011;4563;54.756;9.400;2022-09-09T00:44:54;15.67;;;11.00;;
9056;SDS011;4563;54.756;9.400;2022-09-09T00:47:43;13.33;;;10.87;;
9056;SDS011;4563;54.756;9.400;2022-09-09T00:50:17;14.87;;;11.33;;
9056;SDS011;4563;54.756;9.400;2022-09-09T00:53:02;16.93;;;11.53;;
9056;SDS011;4563;54.756;9.400;2022-09-09T00:55:40;14.83;;;10.30;;
9056;SDS011;4563;54.756;9.400;2022-09-09T00:58:11;14.03;;;10.07;;
9056;SDS011;4563;54.756;9.400;2022-09-09T01:00:41;14.97;;;11.03;;
9056;SDS011;4563;54.756;9.400;2022-09-09T01:03:14;15.67;;;10.53;;
9056;SDS011;4563;54.756;9.400;2022-09-09T01:05:51;13.03;;;11.47;;
9056;SDS011;4563;54.756;9.400;2022-09-09T01:08:40;19.23;;;12.13;;
9056;SDS011;4563;54.756;9.400;2022-09-09T01:11:20;14.00;;;11.10;;
9056;SDS011;4563;54.756;9.400;2022-09-09T01:13:52;16.77;;;11.77;;
9056;SDS011;4563;54.756;9.400;2022-09-09T01:16:26;15.53;;;12.43;;
9056;SDS011;4563;54.756;9.400;2022-09-09T01:18:55;16.67;;;11.93;;
9056;SDS011;4563;54.756;9.400;2022-09-09T01:21:26;15.83;;;12.43;;
9056;SDS011;4563;54.756;9.400;2022-09-09T01:24:13;14.57;;;11.83;;
9056;SDS011;4563;54.756;9.400;2022-09-09T01:26:49;22.53;;;12.63;;
9056;SDS011;4563;54.756;9.400;2022-09-09T01:29:20;17.43;;;12.57;;
9056;SDS011;4563;54.756;9.400;2022-09-09T01:31:52;20.43;;;13.90;;
9056;SDS011;4563;54.756;9.400;2022-09-09T01:34:21;22.47;;;14.27;;
9056;SDS011;4563;54.756;9.400;2022-09-09T01:36:52;22.40;;;14.97;;
9056;SDS011;4563;54.756;9.400;2022-09-09T01:39:24;20.93;;;14.17;;
9056;SDS011;4563;54.756;9.400;2022-09-09T01:41:52;21.97;;;13.83;;
9056;SDS011;4563;54.756;9.400;2022-09-09T01:44:21;23.33;;;15.23;;
9056;SDS011;4563;54.756;9.400;2022-09-09T01:46:48;23.30;;;15.47;;
9056;SDS011;4563;54.756;9.400;2022-09-09T01:49:15;24.10;;;15.87;;
9056;SDS011;4563;54.756;9.400;2022-09-09T01:51:43;22.77;;;15.63;;
9056;SDS011;4563;54.756;9.400;2022-09-09T01:54:15;25.90;;;15.60;;
9056;SDS011;4563;54.756;9.400;2022-09-09T01:56:44;28.13;;;16.50;;
9056;SDS011;4563;54.756;9.400;2022-09-09T01:59:27;24.73;;;15.90;;
9056;SDS011;4563;54.756;9.400;2022-09-09T02:02:08;27.47;;;14.93;;
9056;SDS011;4563;54.756;9.400;2022-09-09T02:04:38;27.03;;;14.40;;
9056;SDS011;4563;54.756;9.400;2022-09-09T02:07:09;25.10;;;16.30;;
9056;SDS011;4563;54.756;9.400;2022-09-09T02:09:47;29.50;;;15.80;;
9056;SDS011;4563;54.756;9.400;2022-09-09T02:12:21;25.33;;;17.00;;
9056;SDS011;4563;54.756;9.400;2022-09-09T02:14:55;29.83;;;16.73;;
9056;SDS011;4563;54.756;9.400;2022-09-09T02:17:25;27.50;;;18.13;;
9056;SDS011;4563;54.756;9.400;2022-09-09T02:19:57;33.03;;;17.60;;
9056;SDS011;4563;54.756;9.400;2022-09-09T02:22:28;36.00;;;19.10;;
9056;SDS011;4563;54.756;9.400;2022-09-09T02:24:59;30.77;;;17.57;;
9056;SDS011;4563;54.756;9.400;2022-09-09T02:27:26;31.10;;;18.67;;
9056;SDS011;4563;54.756;9.400;2022-09-09T02:29:55;33.50;;;18.17;;
9056;SDS011;4563;54.756;9.400;2022-09-09T02:32:25;30.40;;;18.27;;
9056;SDS011;4563;54.756;9.400;2022-09-09T02:34:56;33.40;;;19.10;;
9056;SDS011;4563;54.756;9.400;2022-09-09T02:37:27;33.13;;;18.70;;
9056;SDS011;4563;54.756;9.400;2022-09-09T02:40:00;38.80;;;20.33;;
9056;SDS011;4563;54.756;9.400;2022-09-09T02:42:27;43.10;;;20.40;;
9056;SDS011;4563;54.756;9.400;2022-09-09T02:44:56;36.23;;;20.20;;
9056;SDS011;4563;54.756;9.400;2022-09-09T02:47:25;38.80;;;20.37;;
9056;SDS011;4563;54.756;9.400;2022-09-09T02:50:02;39.33;;;20.53;;
9056;SDS011;4563;54.756;9.400;2022-09-09T02:52:37;35.63;;;20.90;;
9056;SDS011;4563;54.756;9.400;2022-09-09T02:55:12;37.20;;;21.27;;
9056;SDS011;4563;54.756;9.400;2022-09-09T02:57:46;35.53;;;20.90;;
9056;SDS011;4563;54.756;9.400;2022-09-09T03:00:15;29.60;;;18.63;;
9056;SDS011;4563;54.756;9.400;2022-09-09T03:02:49;39.20;;;20.57;;
9056;SDS011;4563;54.756;9.400;2022-09-09T03:05:16;38.77;;;21.07;;
9056;SDS011;4563;54.756;9.400;2022-09-09T03:07:43;37.93;;;20.33;;
9056;SDS011;4563;54.756;9.400;2022-09-09T03:10:10;34.07;;;20.03;;
9056;SDS011;4563;54.756;9.400;2022-09-09T03:12:36;32.13;;;20.43;;
9056;SDS011;4563;54.756;9.400;2022-09-09T03:15:04;34.77;;;21.03;;
9056;SDS011;4563;54.756;9.400;2022-09-09T03:17:32;39.20;;;21.23;;
9056;SDS011;4563;54.756;9.400;2022-09-09T03:20:00;33.13;;;21.03;;
9056;SDS011;4563;54.756;9.400;2022-09-09T03:22:27;37.50;;;20.57;;
9056;SDS011;4563;54.756;9.400;2022-09-09T03:24:54;31.40;;;20.43;;
9056;SDS011;4563;54.756;9.400;2022-09-09T03:27:21;31.73;;;20.63;;
9056;SDS011;4563;54.756;9.400;2022-09-09T03:29:48;30.60;;;19.87;;
9056;SDS011;4563;54.756;9.400;2022-09-09T03:32:16;26.97;;;18.73;;
9056;SDS011;4563;54.756;9.400;2022-09-09T03:34:44;29.70;;;19.17;;
9056;SDS011;4563;54.756;9.400;2022-09-09T03:37:12;28.23;;;19.10;;
9056;SDS011;4563;54.756;9.400;2022-09-09T03:39:39;34.73;;;20.63;;
9056;SDS011;4563;54.756;9.400;2022-09-09T03:42:06;29.67;;;19.83;;
9056;SDS011;4563;54.756;9.400;2022-09-09T03:44:33;24.37;;;18.07;;
9056;SDS011;4563;54.756;9.400;2022-09-09T03:46:59;27.97;;;18.57;;
9056;SDS011;4563;54.756;9.400;2022-09-09T03:49:26;27.60;;;19.13;;
9056;SDS011;4563;54.756;9.400;2022-09-09T03:51:55;23.70;;;17.83;;
9056;SDS011;4563;54.756;9.400;2022-09-09T03:54:23;24.60;;;17.63;;
9056;SDS011;4563;54.756;9.400;2022-09-09T03:56:50;24.80;;;17.47;;
9056;SDS011;4563;54.756;9.400;2022-09-09T03:59:17;28.87;;;18.90;;
9056;SDS011;4563;54.756;9.400;2022-09-09T04:01:45;27.07;;;19.00;;
9056;SDS011;4563;54.756;9.400;2022-09-09T04:04:12;27.93;;;18.83;;
9056;SDS011;4563;54.756;9.400;2022-09-09T04:06:39;31.03;;;19.77;;
9056;SDS011;4563;54.756;9.400;2022-09-09T04:09:07;27.23;;;18.73;;
9056;SDS011;4563;54.756;9.400;2022-09-09T04:11:34;28.27;;;18.93;;
9056;SDS011;4563;54.756;9.400;2022-09-09T04:14:02;28.87;;;20.90;;
9056;SDS011;4563;54.756;9.400;2022-09-09T04:16:29;30.07;;;21.17;;
9056;SDS011;4563;54.756;9.400;2022-09-09T04:18:55;38.60;;;20.73;;
9056;SDS011;4563;54.756;9.400;2022-09-09T04:21:23;36.80;;;20.67;;
9056;SDS011;4563;54.756;9.400;2022-09-09T04:23:49;31.37;;;21.03;;
9056;SDS011;4563;54.756;9.400;2022-09-09T04:26:18;27.93;;;19.93;;
9056;SDS011;4563;54.756;9.400;2022-09-09T04:28:45;30.33;;;19.63;;
9056;SDS011;4563;54.756;9.400;2022-09-09T04:31:14;30.93;;;20.37;;
9056;SDS011;4563;54.756;9.400;2022-09-09T04:33:43;27.23;;;19.37;;
9056;SDS011;4563;54.756;9.400;2022-09-09T04:36:11;34.83;;;20.47;;
9056;SDS011;4563;54.756;9.400;2022-09-09T04:38:38;27.40;;;19.97;;
9056;SDS011;4563;54.756;9.400;2022-09-09T04:41:05;28.23;;;19.23;;
9056;SDS011;4563;54.756;9.400;2022-09-09T04:43:37;26.33;;;19.10;;
9056;SDS011;4563;54.756;9.400;2022-09-09T04:46:05;28.40;;;19.90;;
9056;SDS011;4563;54.756;9.400;2022-09-09T04:48:32;29.97;;;19.10;;
9056;SDS011;4563;54.756;9.400;2022-09-09T04:50:59;25.47;;;17.47;;
9056;SDS011;4563;54.756;9.400;2022-09-09T04:53:28;25.53;;;17.97;;
9056;SDS011;4563;54.756;9.400;2022-09-09T04:56:00;28.90;;;17.13;;
9056;SDS011;4563;54.756;9.400;2022-09-09T04:58:28;25.53;;;16.60;;
9056;SDS011;4563;54.756;9.400;2022-09-09T05:01:03;25.47;;;16.03;;
9056;SDS011;4563;54.756;9.400;2022-09-09T05:03:30;28.90;;;16.97;;
9056;SDS011;4563;54.756;9.400;2022-09-09T05:06:03;22.03;;;16.43;;
9056;SDS011;4563;54.756;9.400;2022-09-09T05:08:31;24.97;;;16.97;;
9056;SDS011;4563;54.756;9.400;2022-09-09T05:10:58;27.20;;;16.63;;
9056;SDS011;4563;54.756;9.400;2022-09-09T05:13:25;22.93;;;16.53;;
9056;SDS011;4563;54.756;9.400;2022-09-09T05:15:52;24.77;;;16.47;;
9056;SDS011;4563;54.756;9.400;2022-09-09T05:18:21;22.97;;;15.33;;
9056;SDS011;4563;54.756;9.400;2022-09-09T05:20:48;24.50;;;13.67;;
9056;SDS011;4563;54.756;9.400;2022-09-09T05:23:15;21.57;;;13.40;;
9056;SDS011;4563;54.756;9.400;2022-09-09T05:25:42;18.63;;;13.10;;
9056;SDS011;4563;54.756;9.400;2022-09-09T05:28:11;16.07;;;13.60;;
9056;SDS011;4563;54.756;9.400;2022-09-09T05:30:38;18.60;;;12.27;;
9056;SDS011;4563;54.756;9.400;2022-09-09T05:33:05;19.43;;;11.53;;
9056;SDS011;4563;54.756;9.400;2022-09-09T05:35:35;16.20;;;12.17;;
9056;SDS011;4563;54.756;9.400;2022-09-09T05:38:04;16.00;;;12.17;;
9056;SDS011;4563;54.756;9.400;2022-09-09T05:40:31;30.03;;;12.57;;
9056;SDS011;4563;54.756;9.400;2022-09-09T05:42:59;14.00;;;12.17;;
9056;SDS011;4563;54.756;9.400;2022-09-09T05:45:27;21.23;;;12.00;;
9056;SDS011;4563;54.756;9.400;2022-09-09T05:47:53;15.70;;;12.17;;
9056;SDS011;4563;54.756;9.400;2022-09-09T05:50:20;12.07;;;10.43;;
9056;SDS011;4563;54.756;9.400;2022-09-09T05:52:48;18.47;;;11.03;;
9056;SDS011;4563;54.756;9.400;2022-09-09T05:55:15;19.90;;;11.33;;
9056;SDS011;4563;54.756;9.400;2022-09-09T05:57:47;22.43;;;11.73;;
9056;SDS011;4563;54.756;9.400;2022-09-09T06:00:14;14.93;;;10.97;;
9056;SDS011;4563;54.756;9.400;2022-09-09T06:02:42;34.43;;;11.47;;
9056;SDS011;4563;54.756;9.400;2022-09-09T06:05:08;22.30;;;11.60;;
9056;SDS011;4563;54.756;9.400;2022-09-09T06:07:36;25.53;;;11.43;;
9056;SDS011;4563;54.756;9.400;2022-09-09T06:10:08;25.63;;;11.13;;
9056;SDS011;4563;54.756;9.400;2022-09-09T06:12:35;23.37;;;12.83;;
9056;SDS011;4563;54.756;9.400;2022-09-09T06:15:02;20.57;;;13.23;;
9056;SDS011;4563;54.756;9.400;2022-09-09T06:17:30;15.77;;;12.93;;
9056;SDS011;4563;54.756;9.400;2022-09-09T06:19:57;16.13;;;13.30;;
9056;SDS011;4563;54.756;9.400;2022-09-09T06:22:24;25.10;;;12.67;;
9056;SDS011;4563;54.756;9.400;2022-09-09T06:24:50;17.50;;;12.70;;
9056;SDS011;4563;54.756;9.400;2022-09-09T06:27:19;16.17;;;11.63;;
9056;SDS011;4563;54.756;9.400;2022-09-09T06:29:46;18.57;;;12.00;;
9056;SDS011;4563;54.756;9.400;2022-09-09T06:32:13;15.37;;;12.00;;
9056;SDS011;4563;54.756;9.400;2022-09-09T06:34:40;20.40;;;13.70;;
9056;SDS011;4563;54.756;9.400;2022-09-09T06:37:07;18.80;;;13.30;;
9056;SDS011;4563;54.756;9.400;2022-09-09T06:39:34;17.20;;;13.27;;
9056;SDS011;4563;54.756;9.400;2022-09-09T06:42:00;26.63;;;12.47;;
9056;SDS011;4563;54.756;9.400;2022-09-09T06:44:29;20.03;;;12.37;;
9056;SDS011;4563;54.756;9.400;2022-09-09T06:46:56;19.23;;;12.13;;
9056;SDS011;4563;54.756;9.400;2022-09-09T06:49:24;18.73;;;12.33;;
9056;SDS011;4563;54.756;9.400;2022-09-09T06:51:51;22.40;;;13.27;;
9056;SDS011;4563;54.756;9.400;2022-09-09T06:54:19;14.93;;;12.70;;
9056;SDS011;4563;54.756;9.400;2022-09-09T06:56:47;22.93;;;13.40;;
9056;SDS011;4563;54.756;9.400;2022-09-09T06:59:15;17.77;;;13.43;;
9056;SDS011;4563;54.756;9.400;2022-09-09T07:01:43;15.27;;;13.37;;
9056;SDS011;4563;54.756;9.400;2022-09-09T07:04:10;20.77;;;14.73;;
9056;SDS011;4563;54.756;9.400;2022-09-09T07:06:38;24.37;;;15.17;;
9056;SDS011;4563;54.756;9.400;2022-09-09T07:09:08;22.23;;;15.07;;
9056;SDS011;4563;54.756;9.400;2022-09-09T07:11:37;22.67;;;15.63;;
9056;SDS011;4563;54.756;9.400;2022-09-09T07:14:06;17.90;;;15.00;;
9056;SDS011;4563;54.756;9.400;2022-09-09T07:16:34;20.53;;;15.13;;
9056;SDS011;4563;54.756;9.400;2022-09-09T07:19:03;17.37;;;14.23;;
9056;SDS011;4563;54.756;9.400;2022-09-09T07:21:30;19.30;;;13.50;;
9056;SDS011;4563;54.756;9.400;2022-09-09T07:23:58;18.67;;;14.57;;
9056;SDS011;4563;54.756;9.400;2022-09-09T07:26:26;19.73;;;13.73;;
9056;SDS011;4563;54.756;9.400;2022-09-09T07:28:55;18.73;;;14.20;;
9056;SDS011;4563;54.756;9.400;2022-09-09T07:31:23;20.67;;;15.90;;
9056;SDS011;4563;54.756;9.400;2022-09-09T07:33:55;20.70;;;15.47;;
9056;SDS011;4563;54.756;9.400;2022-09-09T07:36:24;23.20;;;14.30;;
9056;SDS011;4563;54.756;9.400;2022-09-09T07:38:52;23.17;;;15.27;;
9056;SDS011;4563;54.756;9.400;2022-09-09T07:41:22;21.30;;;14.23;;
9056;SDS011;4563;54.756;9.400;2022-09-09T07:43:50;19.17;;;14.83;;
9056;SDS011;4563;54.756;9.400;2022-09-09T07:46:19;22.53;;;15.80;;
9056;SDS011;4563;54.756;9.400;2022-09-09T07:48:48;28.80;;;16.07;;
9056;SDS011;4563;54.756;9.400;2022-09-09T07:51:17;22.77;;;17.07;;
9056;SDS011;4563;54.756;9.400;2022-09-09T07:53:50;24.87;;;18.30;;
9056;SDS011;4563;54.756;9.400;2022-09-09T07:56:18;21.17;;;17.57;;
9056;SDS011;4563;54.756;9.400;2022-09-09T07:58:46;23.47;;;18.47;;
9056;SDS011;4563;54.756;9.400;2022-09-09T08:01:15;23.13;;;17.47;;
9056;SDS011;4563;54.756;9.400;2022-09-09T08:03:43;23.80;;;17.87;;
9056;SDS011;4563;54.756;9.400;2022-09-09T08:06:11;18.77;;;15.63;;
9056;SDS011;4563;54.756;9.400;2022-09-09T08:08:38;20.90;;;15.90;;
9056;SDS011;4563;54.756;9.400;2022-09-09T08:11:10;24.63;;;17.40;;
9056;SDS011;4563;54.756;9.400;2022-09-09T08:13:41;19.30;;;15.50;;
9056;SDS011;4563;54.756;9.400;2022-09-09T08:16:10;21.00;;;15.90;;
9056;SDS011;4563;54.756;9.400;2022-09-09T08:18:39;21.80;;;16.50;;
9056;SDS011;4563;54.756;9.400;2022-09-09T08:21:10;23.77;;;17.07;;
9056;SDS011;4563;54.756;9.400;2022-09-09T08:23:38;21.77;;;15.80;;
9056;SDS011;4563;54.756;9.400;2022-09-09T08:26:07;21.57;;;16.63;;
9056;SDS011;4563;54.756;9.400;2022-09-09T08:28:37;23.10;;;18.00;;
9056;SDS011;4563;54.756;9.400;2022-09-09T08:31:06;18.60;;;15.33;;
9056;SDS011;4563;54.756;9.400;2022-09-09T08:33:37;20.73;;;14.03;;
9056;SDS011;4563;54.756;9.400;2022-09-09T08:36:04;18.10;;;14.50;;
9056;SDS011;4563;54.756;9.400;2022-09-09T08:38:34;19.23;;;14.43;;
9056;SDS011;4563;54.756;9.400;2022-09-09T08:41:05;25.37;;;18.17;;
9056;SDS011;4563;54.756;9.400;2022-09-09T08:43:50;21.27;;;16.20;;
9056;SDS011;4563;54.756;9.400;2022-09-09T08:46:27;23.40;;;16.80;;
9056;SDS011;4563;54.756;9.400;2022-09-09T08:49:00;22.63;;;16.87;;
9056;SDS011;4563;54.756;9.400;2022-09-09T08:51:32;22.17;;;16.67;;
9056;SDS011;4563;54.756;9.400;2022-09-09T08:54:00;20.97;;;16.10;;
9056;SDS011;4563;54.756;9.400;2022-09-09T08:56:31;21.47;;;16.67;;
9056;SDS011;4563;54.756;9.400;2022-09-09T08:58:59;26.27;;;16.70;;
9056;SDS011;4563;54.756;9.400;2022-09-09T09:01:49;22.83;;;17.10;;
9056;SDS011;4563;54.756;9.400;2022-09-09T09:04:29;24.87;;;16.63;;
9056;SDS011;4563;54.756;9.400;2022-09-09T09:07:09;21.73;;;16.73;;
9056;SDS011;4563;54.756;9.400;2022-09-09T09:09:48;21.27;;;17.23;;
9056;SDS011;4563;54.756;9.400;2022-09-09T09:12:25;24.60;;;17.43;;
9056;SDS011;4563;54.756;9.400;2022-09-09T09:14:56;22.83;;;16.63;;
9056;SDS011;4563;54.756;9.400;2022-09-09T09:17:25;22.70;;;17.50;;
9056;SDS011;4563;54.756;9.400;2022-09-09T09:19:56;23.80;;;18.03;;
9056;SDS011;4563;54.756;9.400;2022-09-09T09:22:25;21.97;;;16.87;;
9056;SDS011;4563;54.756;9.400;2022-09-09T09:24:59;22.23;;;16.63;;
9056;SDS011;4563;54.756;9.400;2022-09-09T09:27:39;19.60;;;16.33;;
9056;SDS011;4563;54.756;9.400;2022-09-09T09:30:13;20.50;;;15.73;;
9056;SDS011;4563;54.756;9.400;2022-09-09T09:32:44;21.33;;;16.13;;
9056;SDS011;4563;54.756;9.400;2022-09-09T09:35:17;21.07;;;16.20;;
9056;SDS011;4563;54.756;9.400;2022-09-09T09:37:44;22.27;;;15.67;;
9056;SDS011;4563;54.756;9.400;2022-09-09T09:40:26;21.03;;;16.40;;
9056;SDS011;4563;54.756;9.400;2022-09-09T09:43:00;20.67;;;15.63;;
9056;SDS011;4563;54.756;9.400;2022-09-09T09:45:33;19.43;;;15.07;;
9056;SDS011;4563;54.756;9.400;2022-09-09T09:48:02;25.40;;;16.33;;
9056;SDS011;4563;54.756;9.400;2022-09-09T09:50:46;20.17;;;14.90;;
9056;SDS011;4563;54.756;9.400;2022-09-09T09:53:19;22.43;;;15.30;;
9056;SDS011;4563;54.756;9.400;2022-09-09T09:55:50;20.50;;;14.77;;
9056;SDS011;4563;54.756;9.400;2022-09-09T09:58:22;19.70;;;14.00;;
9056;SDS011;4563;54.756;9.400;2022-09-09T10:00:51;21.47;;;16.77;;
9056;SDS011;4563;54.756;9.400;2022-09-09T10:03:23;16.53;;;13.00;;
9056;SDS011;4563;54.756;9.400;2022-09-09T10:05:52;17.30;;;12.47;;
9056;SDS011;4563;54.756;9.400;2022-09-09T10:08:21;19.93;;;13.37;;
9056;SDS011;4563;54.756;9.400;2022-09-09T10:10:51;16.50;;;12.63;;
9056;SDS011;4563;54.756;9.400;2022-09-09T10:13:31;15.97;;;11.87;;
9056;SDS011;4563;54.756;9.400;2022-09-09T10:16:10;13.27;;;11.87;;
9056;SDS011;4563;54.756;9.400;2022-09-09T10:18:53;13.67;;;10.90;;
9056;SDS011;4563;54.756;9.400;2022-09-09T10:24:29;12.43;;;10.47;;
9056;SDS011;4563;54.756;9.400;2022-09-09T10:27:23;18.17;;;11.67;;
9056;SDS011;4563;54.756;9.400;2022-09-09T10:30:02;13.07;;;11.17;;
9056;SDS011;4563;54.756;9.400;2022-09-09T10:32:37;12.43;;;10.77;;
9056;SDS011;4563;54.756;9.400;2022-09-09T10:35:12;18.30;;;11.13;;
9056;SDS011;4563;54.756;9.400;2022-09-09T10:37:52;14.50;;;10.83;;
9056;SDS011;4563;54.756;9.400;2022-09-09T10:40:37;13.47;;;10.30;;
9056;SDS011;4563;54.756;9.400;2022-09-09T10:43:10;12.73;;;10.33;;
9056;SDS011;4563;54.756;9.400;2022-09-09T10:45:52;13.33;;;10.30;;
9056;SDS011;4563;54.756;9.400;2022-09-09T10:48:31;13.93;;;10.53;;
9056;SDS011;4563;54.756;9.400;2022-09-09T10:51:13;11.90;;;10.63;;
9056;SDS011;4563;54.756;9.400;2022-09-09T10:53:52;12.97;;;11.50;;
9056;SDS011;4563;54.756;9.400;2022-09-09T10:56:30;16.07;;;13.37;;
9056;SDS011;4563;54.756;9.400;2022-09-09T10:58:59;14.70;;;13.10;;
9056;SDS011;4563;54.756;9.400;2022-09-09T11:01:33;14.47;;;12.33;;
9056;SDS011;4563;54.756;9.400;2022-09-09T11:04:10;14.47;;;13.10;;
9056;SDS011;4563;54.756;9.400;2022-09-09T11:06:44;13.73;;;12.53;;
9056;SDS011;4563;54.756;9.400;2022-09-09T11:09:18;18.13;;;13.93;;
9056;SDS011;4563;54.756;9.400;2022-09-09T11:11:49;15.50;;;12.47;;
9056;SDS011;4563;54.756;9.400;2022-09-09T11:14:19;14.77;;;13.10;;
9056;SDS011;4563;54.756;9.400;2022-09-09T11:16:56;13.30;;;12.07;;
9056;SDS011;4563;54.756;9.400;2022-09-09T11:19:26;13.93;;;12.40;;
9056;SDS011;4563;54.756;9.400;2022-09-09T11:21:59;15.07;;;11.57;;
9056;SDS011;4563;54.756;9.400;2022-09-09T11:24:29;13.10;;;11.80;;
9056;SDS011;4563;54.756;9.400;2022-09-09T11:27:02;14.43;;;10.50;;
9056;SDS011;4563;54.756;9.400;2022-09-09T11:29:57;13.43;;;11.40;;
9056;SDS011;4563;54.756;9.400;2022-09-09T11:32:51;11.57;;;9.97;;
9056;SDS011;4563;54.756;9.400;2022-09-09T11:35:33;13.07;;;11.20;;
9056;SDS011;4563;54.756;9.400;2022-09-09T11:38:15;13.40;;;11.53;;
9056;SDS011;4563;54.756;9.400;2022-09-09T11:40:45;13.70;;;12.30;;
9056;SDS011;4563;54.756;9.400;2022-09-09T11:43:13;15.60;;;12.30;;
9056;SDS011;4563;54.756;9.400;2022-09-09T11:45:49;14.07;;;12.60;;
9056;SDS011;4563;54.756;9.400;2022-09-09T11:48:25;12.20;;;11.10;;
9056;SDS011;4563;54.756;9.400;2022-09-09T11:50:58;8.20;;;7.57;;
9056;SDS011;4563;54.756;9.400;2022-09-09T11:53:27;7.30;;;6.70;;
9056;SDS011;4563;54.756;9.400;2022-09-09T11:56:05;7.43;;;6.80;;
9056;SDS011;4563;54.756;9.400;2022-09-09T11:58:38;6.10;;;5.57;;
9056;SDS011;4563;54.756;9.400;2022-09-09T12:01:14;6.17;;;5.57;;
9056;SDS011;4563;54.756;9.400;2022-09-09T12:03:54;4.90;;;4.50;;
9056;SDS011;4563;54.756;9.400;2022-09-09T12:06:32;5.73;;;5.23;;
9056;SDS011;4563;54.756;9.400;2022-09-09T12:09:08;4.63;;;4.23;;
9056;SDS011;4563;54.756;9.400;2022-09-09T12:11:41;3.67;;;3.37;;
9056;SDS011;4563;54.756;9.400;2022-09-09T12:14:18;4.27;;;3.93;;
9056;SDS011;4563;54.756;9.400;2022-09-09T12:16:47;4.60;;;4.30;;
9056;SDS011;4563;54.756;9.400;2022-09-09T12:19:17;5.37;;;4.87;;
9056;SDS011;4563;54.756;9.400;2022-09-09T12:21:48;4.77;;;4.23;;
9056;SDS011;4563;54.756;9.400;2022-09-09T12:24:27;3.87;;;3.57;;
9056;SDS011;4563;54.756;9.400;2022-09-09T12:27:02;3.80;;;3.50;;
9056;SDS011;4563;54.756;9.400;2022-09-09T12:29:36;6.33;;;3.63;;
9056;SDS011;4563;54.756;9.400;2022-09-09T12:32:08;4.40;;;4.13;;
9056;SDS011;4563;54.756;9.400;2022-09-09T12:34:40;3.97;;;3.67;;
9056;SDS011;4563;54.756;9.400;2022-09-09T12:37:17;4.53;;;4.03;;
9056;SDS011;4563;54.756;9.400;2022-09-09T12:39:51;4.43;;;4.13;;
9056;SDS011;4563;54.756;9.400;2022-09-09T12:42:22;6.60;;;4.37;;
9056;SDS011;4563;54.756;9.400;2022-09-09T12:44:53;5.00;;;3.67;;
9056;SDS011;4563;54.756;9.400;2022-09-09T12:47:21;4.70;;;4.30;;
9056;SDS011;4563;54.756;9.400;2022-09-09T12:49:54;4.90;;;4.50;;
9056;SDS011;4563;54.756;9.400;2022-09-09T12:52:23;4.73;;;4.33;;
9056;SDS011;4563;54.756;9.400;2022-09-09T12:54:55;4.97;;;4.60;;
9056;SDS011;4563;54.756;9.400;2022-09-09T12:57:23;5.10;;;3.80;;
9056;SDS011;4563;54.756;9.400;2022-09-09T12:59:52;4.80;;;4.27;;
9056;SDS011;4563;54.756;9.400;2022-09-09T13:02:31;4.23;;;3.93;;
9056;SDS011;4563;54.756;9.400;2022-09-09T13:05:09;5.27;;;3.80;;
9056;SDS011;4563;54.756;9.400;2022-09-09T13:07:41;2.90;;;2.67;;
9056;SDS011;4563;54.756;9.400;2022-09-09T13:10:10;2.57;;;2.37;;
9056;SDS011;4563;54.756;9.400;2022-09-09T13:12:38;2.40;;;1.70;;
9056;SDS011;4563;54.756;9.400;2022-09-09T13:15:10;2.20;;;1.20;;
9056;SDS011;4563;54.756;9.400;2022-09-09T13:17:48;2.40;;;1.20;;
9056;SDS011;4563;54.756;9.400;2022-09-09T13:20:21;4.30;;;1.30;;
9056;SDS011;4563;54.756;9.400;2022-09-09T13:22:50;2.23;;;1.20;;
9056;SDS011;4563;54.756;9.400;2022-09-09T13:25:20;1.43;;;1.20;;
9056;SDS011;4563;54.756;9.400;2022-09-09T13:27:52;3.50;;;1.27;;
9056;SDS011;4563;54.756;9.400;2022-09-09T13:30:22;2.47;;;1.97;;
9056;SDS011;4563;54.756;9.400;2022-09-09T13:33:19;2.87;;;2.57;;
9056;SDS011;4563;54.756;9.400;2022-09-09T13:35:50;3.30;;;2.77;;
9056;SDS011;4563;54.756;9.400;2022-09-09T13:38:20;3.60;;;3.40;;
9056;SDS011;4563;54.756;9.400;2022-09-09T13:40:57;3.73;;;3.27;;
9056;SDS011;4563;54.756;9.400;2022-09-09T13:43:27;5.70;;;3.10;;
9056;SDS011;4563;54.756;9.400;2022-09-09T13:45:55;5.73;;;1.90;;
9056;SDS011;4563;54.756;9.400;2022-09-09T13:48:24;2.30;;;1.30;;
9056;SDS011;4563;54.756;9.400;2022-09-09T13:51:00;1.53;;;0.90;;
9056;SDS011;4563;54.756;9.400;2022-09-09T13:53:30;2.37;;;0.87;;
9056;SDS011;4563;54.756;9.400;2022-09-09T13:55:57;1.00;;;0.80;;
9056;SDS011;4563;54.756;9.400;2022-09-09T13:58:26;3.67;;;0.70;;
9056;SDS011;4563;54.756;9.400;2022-09-09T14:00:53;1.80;;;0.60;;
9056;SDS011;4563;54.756;9.400;2022-09-09T14:03:20;2.77;;;0.63;;
9056;SDS011;4563;54.756;9.400;2022-09-09T14:05:47;0.60;;;0.47;;
9056;SDS011;4563;54.756;9.400;2022-09-09T14:08:19;1.53;;;0.60;;
9056;SDS011;4563;54.756;9.400;2022-09-09T14:10:49;1.03;;;0.47;;
9056;SDS011;4563;54.756;9.400;2022-09-09T14:13:17;1.53;;;0.60;;
9056;SDS011;4563;54.756;9.400;2022-09-09T14:15:47;1.07;;;0.60;;
9056;SDS011;4563;54.756;9.400;2022-09-09T14:18:14;0.70;;;0.40;;
9056;SDS011;4563;54.756;9.400;2022-09-09T14:20:41;0.50;;;0.30;;
9056;SDS011;4563;54.756;9.400;2022-09-09T14:23:10;0.87;;;0.40;;
9056;SDS011;4563;54.756;9.400;2022-09-09T14:25:40;0.93;;;0.40;;
9056;SDS011;4563;54.756;9.400;2022-09-09T14:28:11;0.93;;;0.30;;
9056;SDS011;4563;54.756;9.400;2022-09-09T14:30:39;0.90;;;0.30;;
9056;SDS011;4563;54.756;9.400;2022-09-09T14:33:08;1.57;;;0.30;;
9056;SDS011;4563;54.756;9.400;2022-09-09T14:35:38;1.63;;;0.30;;
9056;SDS011;4563;54.756;9.400;2022-09-09T14:38:06;2.10;;;0.30;;
9056;SDS011;4563;54.756;9.400;2022-09-09T14:40:33;1.47;;;0.50;;
9056;SDS011;4563;54.756;9.400;2022-09-09T14:43:02;0.30;;;0.30;;
9056;SDS011;4563;54.756;9.400;2022-09-09T14:45:29;4.33;;;2.17;;
9056;SDS011;4563;54.756;9.400;2022-09-09T14:47:56;1.23;;;0.43;;
9056;SDS011;4563;54.756;9.400;2022-09-09T14:50:24;1.13;;;0.50;;
9056;SDS011;4563;54.756;9.400;2022-09-09T14:52:51;0.30;;;0.30;;
9056;SDS011;4563;54.756;9.400;2022-09-09T14:55:17;2.30;;;0.40;;
9056;SDS011;4563;54.756;9.400;2022-09-09T14:57:45;0.50;;;0.40;;
9056;SDS011;4563;54.756;9.400;2022-09-09T15:00:13;1.83;;;0.43;;
9056;SDS011;4563;54.756;9.400;2022-09-09T15:02:41;0.93;;;0.30;;
9056;SDS011;4563;54.756;9.400;2022-09-09T15:05:08;1.23;;;0.23;;
9056;SDS011;4563;54.756;9.400;2022-09-09T15:07:35;0.80;;;0.40;;
9056;SDS011;4563;54.756;9.400;2022-09-09T15:10:03;2.47;;;0.40;;
9056;SDS011;4563;54.756;9.400;2022-09-09T15:12:31;0.53;;;0.30;;
9056;SDS011;4563;54.756;9.400;2022-09-09T15:14:58;1.40;;;0.43;;
9056;SDS011;4563;54.756;9.400;2022-09-09T15:17:26;1.00;;;0.30;;
9056;SDS011;4563;54.756;9.400;2022-09-09T15:19:53;1.40;;;0.60;;